sensor_id;sensor_type;location;lat;lon;timestamp;pressure;altitude;pressure_sealevel;temperature;humidity
66385;BME280;53426;55.872;37.462;2022-09-30T00:00:11;98984.91;;;11.06;74.69
66385;BME280;53426;55.872;37.462;2022-09-30T00:02:40;98986.84;;;11.04;74.24
66385;BME280;53426;55.872;37.462;2022-09-30T00:05:09;98979.78;;;10.95;74.68
66385;BME280;53426;55.872;37.462;2022-09-30T00:07:34;98997.19;;;10.98;74.87
66385;BME280;53426;55.872;37.462;2022-09-30T00:10:00;98989.13;;;10.89;74.82
66385;BME280;53426;55.872;37.462;2022-09-30T00:12:26;98990.94;;;10.89;75.56
66385;BME280;53426;55.872;37.462;2022-09-30T00:14:52;98996.81;;;10.83;74.99
66385;BME280;53426;55.872;37.462;2022-09-30T00:17:18;98996.13;;;10.81;75.88
66385;BME280;53426;55.872;37.462;2022-09-30T00:19:44;98995.31;;;10.71;75.38
66385;BME280;53426;55.872;37.462;2022-09-30T00:22:09;99005.63;;;10.74;75.46
66385;BME280;53426;55.872;37.462;2022-09-30T00:24:35;98988.66;;;10.57;76.20
66385;BME280;53426;55.872;37.462;2022-09-30T00:27:01;99016.50;;;10.71;75.96
66385;BME280;53426;55.872;37.462;2022-09-30T00:29:26;99025.41;;;10.70;76.14
66385;BME280;53426;55.872;37.462;2022-09-30T00:31:52;99012.31;;;10.59;76.55
66385;BME280;53426;55.872;37.462;2022-09-30T00:34:18;99028.47;;;10.65;76.80
66385;BME280;53426;55.872;37.462;2022-09-30T00:36:49;99016.66;;;10.60;76.76
66385;BME280;53426;55.872;37.462;2022-09-30T00:39:18;99030.47;;;10.63;76.26
66385;BME280;53426;55.872;37.462;2022-09-30T00:41:46;99035.88;;;10.62;76.78
66385;BME280;53426;55.872;37.462;2022-09-30T00:50:36;99035.59;;;10.65;76.21
66385;BME280;53426;55.872;37.462;2022-09-30T00:58:38;99036.72;;;10.62;76.53
66385;BME280;53426;55.872;37.462;2022-09-30T01:01:04;99014.56;;;10.54;76.44
66385;BME280;53426;55.872;37.462;2022-09-30T01:03:36;99031.13;;;10.65;76.35
66385;BME280;53426;55.872;37.462;2022-09-30T01:06:03;99027.22;;;10.60;76.30
66385;BME280;53426;55.872;37.462;2022-09-30T01:08:36;99024.88;;;10.57;76.49
66385;BME280;53426;55.872;37.462;2022-09-30T01:11:03;99026.25;;;10.61;75.67
66385;BME280;53426;55.872;37.462;2022-09-30T01:13:30;99014.00;;;10.60;76.42
66385;BME280;53426;55.872;37.462;2022-09-30T01:16:59;99024.03;;;10.66;75.76
66385;BME280;53426;55.872;37.462;2022-09-30T01:19:26;99022.34;;;10.65;75.76
66385;BME280;53426;55.872;37.462;2022-09-30T01:24:53;99027.38;;;10.68;75.85
66385;BME280;53426;55.872;37.462;2022-09-30T01:30:14;99032.81;;;10.66;76.13
66385;BME280;53426;55.872;37.462;2022-09-30T01:41:26;99027.66;;;10.65;75.55
66385;BME280;53426;55.872;37.462;2022-09-30T01:44:08;99025.97;;;10.64;75.96
66385;BME280;53426;55.872;37.462;2022-09-30T01:46:50;99026.69;;;10.66;76.00
66385;BME280;53426;55.872;37.462;2022-09-30T01:55:15;99025.56;;;10.59;75.72
66385;BME280;53426;55.872;37.462;2022-09-30T02:00:12;99012.06;;;10.42;75.74
66385;BME280;53426;55.872;37.462;2022-09-30T02:03:01;99027.25;;;10.50;76.08
66385;BME280;53426;55.872;37.462;2022-09-30T02:05:59;99029.91;;;10.50;76.09
66385;BME280;53426;55.872;37.462;2022-09-30T02:08:27;99029.91;;;10.50;76.63
66385;BME280;53426;55.872;37.462;2022-09-30T02:11:11;99033.38;;;10.51;76.47
66385;BME280;53426;55.872;37.462;2022-09-30T02:13:47;99010.00;;;10.36;76.13
66385;BME280;53426;55.872;37.462;2022-09-30T02:16:41;99037.72;;;10.52;75.87
66385;BME280;53426;55.872;37.462;2022-09-30T02:21:40;99026.84;;;10.45;76.12
66385;BME280;53426;55.872;37.462;2022-09-30T02:24:12;99016.25;;;10.45;75.75
66385;BME280;53426;55.872;37.462;2022-09-30T02:26:42;99026.00;;;10.54;75.91
66385;BME280;53426;55.872;37.462;2022-09-30T02:29:14;99024.59;;;10.50;75.60
66385;BME280;53426;55.872;37.462;2022-09-30T02:31:43;99022.38;;;10.45;76.23
66385;BME280;53426;55.872;37.462;2022-09-30T02:34:14;99026.13;;;10.43;75.65
66385;BME280;53426;55.872;37.462;2022-09-30T02:36:49;99016.81;;;10.39;76.30
66385;BME280;53426;55.872;37.462;2022-09-30T02:39:33;99017.09;;;10.36;76.08
66385;BME280;53426;55.872;37.462;2022-09-30T02:42:16;99026.97;;;10.43;76.21
66385;BME280;53426;55.872;37.462;2022-09-30T02:44:49;99028.38;;;10.38;76.04
66385;BME280;53426;55.872;37.462;2022-09-30T02:54:54;99017.38;;;10.33;76.38
66385;BME280;53426;55.872;37.462;2022-09-30T02:57:27;99025.59;;;10.39;75.79
66385;BME280;53426;55.872;37.462;2022-09-30T02:59:59;99020.16;;;10.31;76.05
66385;BME280;53426;55.872;37.462;2022-09-30T03:02:25;99027.28;;;10.40;76.09
66385;BME280;53426;55.872;37.462;2022-09-30T03:04:51;99016.53;;;10.32;76.23
66385;BME280;53426;55.872;37.462;2022-09-30T03:07:17;99033.53;;;10.39;76.21
66385;BME280;53426;55.872;37.462;2022-09-30T03:09:43;99016.13;;;10.27;76.17
66385;BME280;53426;55.872;37.462;2022-09-30T03:15:16;99046.75;;;10.39;76.34
66385;BME280;53426;55.872;37.462;2022-09-30T03:18:14;99036.47;;;10.36;76.06
66385;BME280;53426;55.872;37.462;2022-09-30T03:21:07;99025.88;;;10.27;76.46
66385;BME280;53426;55.872;37.462;2022-09-30T03:43:28;99029.09;;;10.30;76.01
66385;BME280;53426;55.872;37.462;2022-09-30T03:46:00;99024.06;;;10.27;76.11
66385;BME280;53426;55.872;37.462;2022-09-30T03:48:28;99010.41;;;10.22;76.18
66385;BME280;53426;55.872;37.462;2022-09-30T03:50:56;99026.28;;;10.32;75.94
66385;BME280;53426;55.872;37.462;2022-09-30T03:53:23;99022.78;;;10.31;75.98
66385;BME280;53426;55.872;37.462;2022-09-30T03:55:51;99015.84;;;10.21;76.34
66385;BME280;53426;55.872;37.462;2022-09-30T03:58:19;99021.41;;;10.27;76.44
66385;BME280;53426;55.872;37.462;2022-09-30T04:00:49;99019.19;;;10.32;76.70
66385;BME280;53426;55.872;37.462;2022-09-30T04:03:16;99032.41;;;10.32;76.06
66385;BME280;53426;55.872;37.462;2022-09-30T04:05:42;99026.28;;;10.22;76.33
66385;BME280;53426;55.872;37.462;2022-09-30T04:08:08;99022.81;;;10.22;76.70
66385;BME280;53426;55.872;37.462;2022-09-30T04:10:34;98996.88;;;10.06;76.52
66385;BME280;53426;55.872;37.462;2022-09-30T04:13:01;99035.63;;;10.36;76.18
66385;BME280;53426;55.872;37.462;2022-09-30T04:15:30;99058.88;;;10.52;75.62
66385;BME280;53426;55.872;37.462;2022-09-30T04:18:09;99059.84;;;10.60;75.51
66385;BME280;53426;55.872;37.462;2022-09-30T04:21:44;99050.22;;;10.59;75.50
66385;BME280;53426;55.872;37.462;2022-09-30T04:24:10;99056.78;;;10.74;74.88
66385;BME280;53426;55.872;37.462;2022-09-30T04:26:36;99053.84;;;10.77;74.55
66385;BME280;53426;55.872;37.462;2022-09-30T04:29:02;99062.06;;;10.84;74.69
66385;BME280;53426;55.872;37.462;2022-09-30T04:31:27;99054.94;;;10.84;74.36
66385;BME280;53426;55.872;37.462;2022-09-30T04:33:55;99036.56;;;10.73;74.06
66385;BME280;53426;55.872;37.462;2022-09-30T04:36:22;99049.47;;;10.86;74.18
66385;BME280;53426;55.872;37.462;2022-09-30T04:38:48;99039.31;;;10.81;73.57
66385;BME280;53426;55.872;37.462;2022-09-30T04:41:15;99059.38;;;10.94;73.76
66385;BME280;53426;55.872;37.462;2022-09-30T04:43:43;99058.69;;;11.01;73.15
66385;BME280;53426;55.872;37.462;2022-09-30T04:46:21;99042.22;;;11.07;73.82
66385;BME280;53426;55.872;37.462;2022-09-30T04:48:48;99034.53;;;11.04;73.68
66385;BME280;53426;55.872;37.462;2022-09-30T04:51:16;99040.41;;;10.98;73.20
66385;BME280;53426;55.872;37.462;2022-09-30T04:53:42;99064.91;;;11.10;73.46
66385;BME280;53426;55.872;37.462;2022-09-30T04:56:09;99064.75;;;11.21;73.31
66385;BME280;53426;55.872;37.462;2022-09-30T04:58:34;99062.38;;;11.27;72.50
66385;BME280;53426;55.872;37.462;2022-09-30T05:01:06;99072.81;;;11.29;72.49
66385;BME280;53426;55.872;37.462;2022-09-30T05:03:33;99049.78;;;11.29;72.28
66385;BME280;53426;55.872;37.462;2022-09-30T05:06:00;99051.19;;;11.24;72.89
66385;BME280;53426;55.872;37.462;2022-09-30T05:08:26;99042.31;;;11.15;72.74
66385;BME280;53426;55.872;37.462;2022-09-30T05:10:55;99065.28;;;11.24;72.73
66385;BME280;53426;55.872;37.462;2022-09-30T05:13:23;99057.50;;;11.23;72.34
66385;BME280;53426;55.872;37.462;2022-09-30T05:15:50;99051.38;;;11.22;72.13
66385;BME280;53426;55.872;37.462;2022-09-30T05:18:18;99057.91;;;11.28;71.99
66385;BME280;53426;55.872;37.462;2022-09-30T05:20:43;99061.38;;;11.28;72.71
66385;BME280;53426;55.872;37.462;2022-09-30T05:23:09;99065.94;;;11.36;72.38
66385;BME280;53426;55.872;37.462;2022-09-30T05:25:35;99057.47;;;11.32;72.21
66385;BME280;53426;55.872;37.462;2022-09-30T05:28:01;99055.91;;;11.30;72.16
66385;BME280;53426;55.872;37.462;2022-09-30T05:30:27;99050.59;;;11.40;72.17
66385;BME280;53426;55.872;37.462;2022-09-30T05:32:53;99058.91;;;11.54;71.43
66385;BME280;53426;55.872;37.462;2022-09-30T05:35:19;99057.75;;;11.57;70.89
66385;BME280;53426;55.872;37.462;2022-09-30T05:37:44;99046.19;;;11.58;71.04
66385;BME280;53426;55.872;37.462;2022-09-30T05:40:10;99051.66;;;11.56;71.04
66385;BME280;53426;55.872;37.462;2022-09-30T05:42:36;99059.16;;;11.61;71.11
66385;BME280;53426;55.872;37.462;2022-09-30T05:45:05;99054.53;;;11.63;70.79
66385;BME280;53426;55.872;37.462;2022-09-30T05:47:32;99056.78;;;11.58;70.25
66385;BME280;53426;55.872;37.462;2022-09-30T05:49:57;99056.16;;;11.73;70.56
66385;BME280;53426;55.872;37.462;2022-09-30T05:52:24;99059.31;;;11.87;70.62
66385;BME280;53426;55.872;37.462;2022-09-30T05:54:50;99063.44;;;11.99;70.09
66385;BME280;53426;55.872;37.462;2022-09-30T05:57:16;99059.38;;;12.04;69.71
66385;BME280;53426;55.872;37.462;2022-09-30T05:59:42;99066.34;;;12.05;69.89
66385;BME280;53426;55.872;37.462;2022-09-30T06:02:09;99066.94;;;12.17;69.08
66385;BME280;53426;55.872;37.462;2022-09-30T06:04:35;99067.94;;;12.34;68.45
66385;BME280;53426;55.872;37.462;2022-09-30T06:07:01;99065.59;;;12.48;67.47
66385;BME280;53426;55.872;37.462;2022-09-30T06:09:26;99076.97;;;12.58;67.36
66385;BME280;53426;55.872;37.462;2022-09-30T06:11:52;99058.63;;;12.65;67.60
66385;BME280;53426;55.872;37.462;2022-09-30T06:14:22;99053.31;;;12.91;66.58
66385;BME280;53426;55.872;37.462;2022-09-30T06:16:48;99054.56;;;13.05;65.93
66385;BME280;53426;55.872;37.462;2022-09-30T06:19:14;99051.81;;;12.88;65.86
66385;BME280;53426;55.872;37.462;2022-09-30T06:21:39;99064.72;;;12.83;65.66
66385;BME280;53426;55.872;37.462;2022-09-30T06:24:05;99046.66;;;12.87;65.60
66385;BME280;53426;55.872;37.462;2022-09-30T06:26:33;99072.34;;;13.04;65.11
66385;BME280;53426;55.872;37.462;2022-09-30T06:28:59;99050.09;;;13.05;65.13
66385;BME280;53426;55.872;37.462;2022-09-30T06:31:25;99067.81;;;13.14;64.83
66385;BME280;53426;55.872;37.462;2022-09-30T06:33:51;99073.50;;;13.53;63.94
66385;BME280;53426;55.872;37.462;2022-09-30T06:36:17;99072.28;;;13.73;63.16
66385;BME280;53426;55.872;37.462;2022-09-30T06:38:43;99076.91;;;13.71;62.63
66385;BME280;53426;55.872;37.462;2022-09-30T06:41:10;99062.91;;;13.69;62.34
66385;BME280;53426;55.872;37.462;2022-09-30T06:43:36;99077.59;;;13.81;62.53
66385;BME280;53426;55.872;37.462;2022-09-30T06:46:01;99051.53;;;13.85;62.36
66385;BME280;53426;55.872;37.462;2022-09-30T06:48:27;99080.19;;;13.99;61.78
66385;BME280;53426;55.872;37.462;2022-09-30T06:50:57;99076.97;;;14.38;60.91
66385;BME280;53426;55.872;37.462;2022-09-30T06:53:25;99072.69;;;14.93;59.04
66385;BME280;53426;55.872;37.462;2022-09-30T06:55:56;99071.41;;;15.44;57.98
66385;BME280;53426;55.872;37.462;2022-09-30T06:58:22;99083.41;;;15.65;57.24
66385;BME280;53426;55.872;37.462;2022-09-30T07:00:58;99070.31;;;15.78;56.67
66385;BME280;53426;55.872;37.462;2022-09-30T07:03:27;99076.78;;;15.92;56.42
66385;BME280;53426;55.872;37.462;2022-09-30T07:05:55;99076.47;;;16.17;55.30
66385;BME280;53426;55.872;37.462;2022-09-30T07:08:22;99083.13;;;16.52;54.81
66385;BME280;53426;55.872;37.462;2022-09-30T07:10:51;99081.13;;;17.14;52.35
66385;BME280;53426;55.872;37.462;2022-09-30T07:13:17;99084.94;;;16.97;53.27
66385;BME280;53426;55.872;37.462;2022-09-30T07:15:43;99091.63;;;17.01;53.17
66385;BME280;53426;55.872;37.462;2022-09-30T07:18:09;99090.44;;;16.81;53.26
66385;BME280;53426;55.872;37.462;2022-09-30T07:20:34;99067.22;;;16.28;54.50
66385;BME280;53426;55.872;37.462;2022-09-30T07:23:00;99079.41;;;16.30;54.43
66385;BME280;53426;55.872;37.462;2022-09-30T07:25:26;99080.72;;;16.35;54.39
66385;BME280;53426;55.872;37.462;2022-09-30T07:27:52;99094.00;;;16.43;54.42
66385;BME280;53426;55.872;37.462;2022-09-30T07:30:19;99085.59;;;16.99;52.94
66385;BME280;53426;55.872;37.462;2022-09-30T07:32:45;99079.41;;;17.51;51.40
66385;BME280;53426;55.872;37.462;2022-09-30T07:35:10;99082.00;;;17.74;50.91
66385;BME280;53426;55.872;37.462;2022-09-30T07:38:02;99078.84;;;18.93;49.81
66385;BME280;53426;55.872;37.462;2022-09-30T07:40:27;99085.63;;;19.44;47.28
66385;BME280;53426;55.872;37.462;2022-09-30T07:42:56;99076.63;;;20.40;45.08
66385;BME280;53426;55.872;37.462;2022-09-30T07:45:22;99085.63;;;20.20;45.73
66385;BME280;53426;55.872;37.462;2022-09-30T07:47:49;99084.66;;;19.45;46.52
66385;BME280;53426;55.872;37.462;2022-09-30T07:50:14;99069.94;;;18.50;48.93
66385;BME280;53426;55.872;37.462;2022-09-30T07:52:41;99066.69;;;17.82;50.06
66385;BME280;53426;55.872;37.462;2022-09-30T07:55:07;99067.88;;;17.50;51.00
66385;BME280;53426;55.872;37.462;2022-09-30T07:57:33;99085.22;;;17.40;51.18
66385;BME280;53426;55.872;37.462;2022-09-30T07:59:59;99083.56;;;17.39;51.82
66385;BME280;53426;55.872;37.462;2022-09-30T08:02:24;99074.72;;;17.68;50.82
66385;BME280;53426;55.872;37.462;2022-09-30T08:04:50;99050.25;;;17.71;50.89
66385;BME280;53426;55.872;37.462;2022-09-30T08:07:17;99049.47;;;18.42;49.31
66385;BME280;53426;55.872;37.462;2022-09-30T08:09:44;99061.06;;;19.75;46.61
66385;BME280;53426;55.872;37.462;2022-09-30T08:12:12;99073.13;;;19.51;46.96
66385;BME280;53426;55.872;37.462;2022-09-30T08:14:38;99075.09;;;19.15;47.65
66385;BME280;53426;55.872;37.462;2022-09-30T08:17:03;99057.38;;;19.48;47.00
66385;BME280;53426;55.872;37.462;2022-09-30T08:19:29;99057.31;;;20.17;45.70
66385;BME280;53426;55.872;37.462;2022-09-30T08:21:56;99065.69;;;20.49;45.02
66385;BME280;53426;55.872;37.462;2022-09-30T08:24:22;99073.59;;;20.63;43.88
66385;BME280;53426;55.872;37.462;2022-09-30T08:26:48;99068.47;;;21.14;42.87
66385;BME280;53426;55.872;37.462;2022-09-30T08:29:14;99061.00;;;20.77;43.85
66385;BME280;53426;55.872;37.462;2022-09-30T08:31:40;99058.69;;;21.00;43.49
66385;BME280;53426;55.872;37.462;2022-09-30T08:34:07;99048.59;;;22.06;42.19
66385;BME280;53426;55.872;37.462;2022-09-30T08:36:32;99061.69;;;22.02;41.23
66385;BME280;53426;55.872;37.462;2022-09-30T08:39:01;99060.81;;;21.38;42.62
66385;BME280;53426;55.872;37.462;2022-09-30T08:52:25;99036.66;;;19.36;48.28
66385;BME280;53426;55.872;37.462;2022-09-30T08:54:53;99049.69;;;19.11;48.67
66385;BME280;53426;55.872;37.462;2022-09-30T08:57:49;99052.41;;;19.17;49.15
66385;BME280;53426;55.872;37.462;2022-09-30T09:00:41;99028.88;;;18.64;49.80
66385;BME280;53426;55.872;37.462;2022-09-30T09:03:28;99034.53;;;18.75;49.92
66385;BME280;53426;55.872;37.462;2022-09-30T09:15:03;99048.59;;;19.05;50.20
66385;BME280;53426;55.872;37.462;2022-09-30T09:17:46;99064.09;;;19.10;49.71
66385;BME280;53426;55.872;37.462;2022-09-30T09:20:39;99041.19;;;20.17;47.33
66385;BME280;53426;55.872;37.462;2022-09-30T09:23:09;99058.41;;;21.81;43.90
66385;BME280;53426;55.872;37.462;2022-09-30T09:25:36;99058.88;;;22.91;41.74
66385;BME280;53426;55.872;37.462;2022-09-30T09:28:08;99057.28;;;23.33;40.73
66385;BME280;53426;55.872;37.462;2022-09-30T09:30:44;99051.78;;;22.97;41.18
66385;BME280;53426;55.872;37.462;2022-09-30T09:33:20;99060.31;;;21.60;43.82
66385;BME280;53426;55.872;37.462;2022-09-30T09:35:54;99051.25;;;21.28;44.79
66385;BME280;53426;55.872;37.462;2022-09-30T09:41:22;99040.97;;;20.12;47.96
66385;BME280;53426;55.872;37.462;2022-09-30T09:44:29;99045.88;;;19.54;49.47
66385;BME280;53426;55.872;37.462;2022-09-30T09:47:11;99041.59;;;19.67;49.17
66385;BME280;53426;55.872;37.462;2022-09-30T09:49:49;99051.69;;;20.99;46.35
66385;BME280;53426;55.872;37.462;2022-09-30T09:55:13;99036.72;;;21.56;44.40
66385;BME280;53426;55.872;37.462;2022-09-30T09:57:41;99048.69;;;21.73;43.84
66385;BME280;53426;55.872;37.462;2022-09-30T10:00:23;99042.34;;;22.50;44.40
66385;BME280;53426;55.872;37.462;2022-09-30T10:05:57;99038.22;;;23.04;41.66
66385;BME280;53426;55.872;37.462;2022-09-30T10:08:29;99018.16;;;22.93;41.43
66385;BME280;53426;55.872;37.462;2022-09-30T10:11:04;99029.84;;;23.12;42.01
66385;BME280;53426;55.872;37.462;2022-09-30T10:13:43;99053.44;;;23.41;42.26
66385;BME280;53426;55.872;37.462;2022-09-30T10:16:36;99041.31;;;22.13;44.51
66385;BME280;53426;55.872;37.462;2022-09-30T10:19:04;99045.72;;;20.10;48.16
66385;BME280;53426;55.872;37.462;2022-09-30T10:21:42;99032.13;;;19.36;51.08
66385;BME280;53426;55.872;37.462;2022-09-30T10:24:25;99028.38;;;19.03;51.33
66385;BME280;53426;55.872;37.462;2022-09-30T10:26:52;99041.59;;;19.39;51.05
66385;BME280;53426;55.872;37.462;2022-09-30T10:31:58;98974.03;;;20.96;46.58
66385;BME280;53426;55.872;37.462;2022-09-30T10:34:31;99047.41;;;21.95;45.33
66385;BME280;53426;55.872;37.462;2022-09-30T10:37:08;99049.13;;;22.59;44.32
66385;BME280;53426;55.872;37.462;2022-09-30T10:39:38;99047.00;;;22.74;44.16
66385;BME280;53426;55.872;37.462;2022-09-30T10:44:50;99043.78;;;22.84;44.12
66385;BME280;53426;55.872;37.462;2022-09-30T10:47:19;99048.50;;;21.68;46.05
66385;BME280;53426;55.872;37.462;2022-09-30T10:50:02;99028.09;;;20.95;48.29
66385;BME280;53426;55.872;37.462;2022-09-30T10:52:33;99048.84;;;20.20;50.41
66385;BME280;53426;55.872;37.462;2022-09-30T10:55:05;99045.72;;;19.62;51.96
66385;BME280;53426;55.872;37.462;2022-09-30T10:57:34;99042.94;;;19.49;52.57
66385;BME280;53426;55.872;37.462;2022-09-30T11:00:13;99028.59;;;19.70;52.22
66385;BME280;53426;55.872;37.462;2022-09-30T11:05:34;99023.78;;;19.52;52.66
66385;BME280;53426;55.872;37.462;2022-09-30T11:08:09;99033.66;;;20.54;50.55
66385;BME280;53426;55.872;37.462;2022-09-30T11:13:42;99033.25;;;22.44;46.24
66385;BME280;53426;55.872;37.462;2022-09-30T11:16:21;99033.97;;;22.27;47.07
66385;BME280;53426;55.872;37.462;2022-09-30T11:24:45;99033.47;;;20.88;49.69
66385;BME280;53426;55.872;37.462;2022-09-30T11:27:42;99043.81;;;20.04;51.75
66385;BME280;53426;55.872;37.462;2022-09-30T11:43:40;99042.75;;;18.95;54.89
66385;BME280;53426;55.872;37.462;2022-09-30T11:48:53;99041.25;;;18.86;55.15
66385;BME280;53426;55.872;37.462;2022-09-30T11:57:31;99051.50;;;18.04;58.28
66385;BME280;53426;55.872;37.462;2022-09-30T12:00:00;99061.13;;;17.84;58.59
66385;BME280;53426;55.872;37.462;2022-09-30T12:02:40;99057.88;;;18.03;58.36
66385;BME280;53426;55.872;37.462;2022-09-30T12:05:17;99059.38;;;17.91;58.92
66385;BME280;53426;55.872;37.462;2022-09-30T12:10:41;99053.38;;;17.74;59.55
66385;BME280;53426;55.872;37.462;2022-09-30T12:13:31;99053.28;;;17.68;59.14
66385;BME280;53426;55.872;37.462;2022-09-30T12:16:00;99063.25;;;17.59;60.10
66385;BME280;53426;55.872;37.462;2022-09-30T12:18:41;99066.22;;;17.64;59.66
66385;BME280;53426;55.872;37.462;2022-09-30T12:21:17;99064.94;;;17.45;60.15
66385;BME280;53426;55.872;37.462;2022-09-30T12:26:26;99064.00;;;17.38;60.73
66385;BME280;53426;55.872;37.462;2022-09-30T12:41:02;99055.19;;;17.67;60.52
66385;BME280;53426;55.872;37.462;2022-09-30T12:46:48;99062.91;;;17.62;61.03
66385;BME280;53426;55.872;37.462;2022-09-30T12:49:23;99061.91;;;17.63;61.00
66385;BME280;53426;55.872;37.462;2022-09-30T12:51:53;99040.06;;;17.51;61.20
66385;BME280;53426;55.872;37.462;2022-09-30T12:54:26;99041.84;;;17.59;61.07
66385;BME280;53426;55.872;37.462;2022-09-30T12:57:10;99057.38;;;17.64;61.48
66385;BME280;53426;55.872;37.462;2022-09-30T13:00:06;99059.41;;;17.62;61.74
66385;BME280;53426;55.872;37.462;2022-09-30T13:02:41;99052.38;;;17.75;61.01
66385;BME280;53426;55.872;37.462;2022-09-30T13:13:24;99057.34;;;17.49;62.43
66385;BME280;53426;55.872;37.462;2022-09-30T13:15:55;99060.38;;;17.31;63.08
66385;BME280;53426;55.872;37.462;2022-09-30T13:28:47;99058.28;;;16.89;64.39
66385;BME280;53426;55.872;37.462;2022-09-30T13:31:19;99072.34;;;17.06;64.11
66385;BME280;53426;55.872;37.462;2022-09-30T13:33:46;99084.78;;;17.13;64.02
66385;BME280;53426;55.872;37.462;2022-09-30T13:36:40;99086.75;;;17.20;64.55
66385;BME280;53426;55.872;37.462;2022-09-30T13:50:26;99101.38;;;16.94;65.29
66385;BME280;53426;55.872;37.462;2022-09-30T13:52:56;99067.63;;;16.70;65.99
66385;BME280;53426;55.872;37.462;2022-09-30T13:55:27;99093.81;;;16.75;66.17
66385;BME280;53426;55.872;37.462;2022-09-30T14:06:01;99101.75;;;16.68;66.75
66385;BME280;53426;55.872;37.462;2022-09-30T14:09:18;99077.34;;;16.41;67.12
66385;BME280;53426;55.872;37.462;2022-09-30T14:18:18;99111.31;;;16.55;67.61
66385;BME280;53426;55.872;37.462;2022-09-30T14:23:35;99109.41;;;16.41;68.36
66385;BME280;53426;55.872;37.462;2022-09-30T14:28:51;99116.72;;;16.47;68.26
66385;BME280;53426;55.872;37.462;2022-09-30T14:31:19;99120.03;;;16.49;68.64
66385;BME280;53426;55.872;37.462;2022-09-30T14:33:47;99129.44;;;16.37;69.06
66385;BME280;53426;55.872;37.462;2022-09-30T14:36:19;99119.22;;;16.17;69.77
66385;BME280;53426;55.872;37.462;2022-09-30T14:38:56;99099.75;;;16.09;70.42
66385;BME280;53426;55.872;37.462;2022-09-30T14:41:25;99127.53;;;16.22;70.63
66385;BME280;53426;55.872;37.462;2022-09-30T14:43:57;99124.72;;;16.16;70.67
66385;BME280;53426;55.872;37.462;2022-09-30T14:46:36;99133.56;;;16.16;71.46
66385;BME280;53426;55.872;37.462;2022-09-30T14:49:06;99119.25;;;16.09;71.79
66385;BME280;53426;55.872;37.462;2022-09-30T14:51:37;99147.81;;;16.09;72.59
66385;BME280;53426;55.872;37.462;2022-09-30T14:54:25;99139.34;;;15.97;73.08
66385;BME280;53426;55.872;37.462;2022-09-30T14:56:57;99139.53;;;15.87;73.71
66385;BME280;53426;55.872;37.462;2022-09-30T14:59:27;99145.38;;;15.91;73.95
66385;BME280;53426;55.872;37.462;2022-09-30T15:02:13;99146.09;;;15.69;74.76
66385;BME280;53426;55.872;37.462;2022-09-30T15:04:48;99154.78;;;15.71;75.52
66385;BME280;53426;55.872;37.462;2022-09-30T15:07:39;99148.78;;;15.69;76.05
66385;BME280;53426;55.872;37.462;2022-09-30T15:10:05;99151.75;;;15.66;76.15
66385;BME280;53426;55.872;37.462;2022-09-30T15:12:33;99159.09;;;15.72;76.20
66385;BME280;53426;55.872;37.462;2022-09-30T15:17:50;99161.28;;;15.68;76.80
66385;BME280;53426;55.872;37.462;2022-09-30T15:20:30;99168.44;;;15.68;76.89
66385;BME280;53426;55.872;37.462;2022-09-30T15:23:00;99162.31;;;15.59;76.97
66385;BME280;53426;55.872;37.462;2022-09-30T15:26:03;99167.66;;;15.59;76.84
66385;BME280;53426;55.872;37.462;2022-09-30T15:28:56;99168.47;;;15.60;77.26
66385;BME280;53426;55.872;37.462;2022-09-30T15:31:26;99115.81;;;15.21;77.98
66385;BME280;53426;55.872;37.462;2022-09-30T15:34:19;99165.94;;;15.50;78.55
66385;BME280;53426;55.872;37.462;2022-09-30T15:36:55;99187.28;;;15.50;78.65
66385;BME280;53426;55.872;37.462;2022-09-30T15:39:28;99183.13;;;15.39;78.75
66385;BME280;53426;55.872;37.462;2022-09-30T15:42:46;99189.97;;;15.42;79.12
66385;BME280;53426;55.872;37.462;2022-09-30T15:45:33;99185.47;;;15.34;79.45
66385;BME280;53426;55.872;37.462;2022-09-30T15:48:00;99186.00;;;15.22;79.64
66385;BME280;53426;55.872;37.462;2022-09-30T15:50:44;99195.66;;;15.31;79.75
66385;BME280;53426;55.872;37.462;2022-09-30T15:53:30;99197.66;;;15.29;79.71
66385;BME280;53426;55.872;37.462;2022-09-30T15:59:05;99194.47;;;15.17;78.85
66385;BME280;53426;55.872;37.462;2022-09-30T16:06:50;99189.13;;;15.01;78.07
66385;BME280;53426;55.872;37.462;2022-09-30T16:09:31;99195.81;;;15.05;77.95
66385;BME280;53426;55.872;37.462;2022-09-30T16:14:53;99200.44;;;14.95;77.88
66385;BME280;53426;55.872;37.462;2022-09-30T16:17:36;99176.13;;;14.82;77.91
66385;BME280;53426;55.872;37.462;2022-09-30T16:20:19;99189.63;;;14.88;77.88
66385;BME280;53426;55.872;37.462;2022-09-30T16:25:24;99207.16;;;14.99;77.56
66385;BME280;53426;55.872;37.462;2022-09-30T16:28:11;99195.47;;;14.92;77.32
66385;BME280;53426;55.872;37.462;2022-09-30T16:30:46;99194.47;;;14.93;77.33
66385;BME280;53426;55.872;37.462;2022-09-30T16:33:16;99205.28;;;14.91;77.38
66385;BME280;53426;55.872;37.462;2022-09-30T16:35:46;99213.13;;;14.93;77.20
66385;BME280;53426;55.872;37.462;2022-09-30T16:38:17;99213.47;;;15.06;77.00
66385;BME280;53426;55.872;37.462;2022-09-30T16:40:45;99207.13;;;14.91;76.38
66385;BME280;53426;55.872;37.462;2022-09-30T16:43:11;99189.09;;;14.85;76.33
66385;BME280;53426;55.872;37.462;2022-09-30T16:45:38;99194.09;;;14.80;76.51
66385;BME280;53426;55.872;37.462;2022-09-30T16:48:15;99220.97;;;14.94;76.45
66385;BME280;53426;55.872;37.462;2022-09-30T16:50:57;99229.31;;;14.99;76.65
66385;BME280;53426;55.872;37.462;2022-09-30T16:53:25;99226.31;;;14.94;77.00
66385;BME280;53426;55.872;37.462;2022-09-30T16:55:52;99222.97;;;14.92;77.47
66385;BME280;53426;55.872;37.462;2022-09-30T16:58:21;99192.75;;;14.68;77.76